Terminal Aerodrome Forecast
Issued by NWS

Home | Current Version | Previous Version | Text Only | Print | Product List | Glossary Off
Versions: 1 2 3 4 5 6 7 8 9 10 11 12 13 14 15 16 17 18 19 20 21

071
FTUS43 KICT 261740
TAFSLN
TAF
KSLN 261740Z 2618/2718 18013KT P6SM SCT040
     FM262000 19015G21KT P6SM VCTS BKN045CB
     FM270600 20010KT P6SM SCT150=

USA.gov is the U.S. government's official web portal to all federal, state and local government web resources and services.